Time;durP1;ratioP1;P1;durP2;ratioP2;P2;SDS_P1;SDS_P2;PMS_P1;PMS_P2;Temp;Humidity;BMP_temperature;BMP_pressure;BME280_temperature;BME280_humidity;BME280_pressure;Samples;Min_cycle;Max_cycle;Signal;HPM_P1;HPM_P2
2022/08/09 02:46:06;;;;;;;2.43;2.23;;;26.20;38.00;;;;;;6217973;22;20445;31
2022/08/09 19:20:16;;;;;;;2.00;1.80;;;26.90;37.10;;;;;;6215280;22;20521;-79
2022/08/09 19:23:14;;;;;;;4.00;2.00;;;26.90;37.20;;;;;;6120318;23;20401;-80
2022/08/09 19:25:58;;;;;;;3.97;2.20;;;26.90;37.20;;;;;;6145918;23;20389;-80
2022/08/09 19:29:13;;;;;;;;;;;;;;;;;;;;;
2022/08/09 19:32:06;;;;;;;2.57;2.03;;;27.00;37.20;;;;;;6099723;23;20373;-80
2022/08/09 19:37:57;;;;;;;1.93;1.83;;;26.90;37.20;;;;;;6135564;23;20387;-82
2022/08/09 19:40:26;;;;;;;2.40;2.20;;;26.90;37.10;;;;;;6144406;23;20424;-82
2022/08/09 19:46:04;;;;;;;2.10;1.90;;;27.00;37.10;;;;;;6126246;23;20370;-83
2022/08/09 20:02:00;;;;;;;2.73;1.87;;;26.90;37.10;;;;;;6143551;23;20609;-82
2022/08/09 20:07:25;;;;;;;2.67;2.10;;;26.90;37.10;;;;;;6131268;23;20377;-81
2022/08/09 20:13:36;;;;;;;2.80;1.70;;;26.90;37.00;;;;;;6144959;23;20381;-82
2022/08/09 20:16:17;;;;;;;3.10;1.80;;;26.90;37.00;;;;;;6118765;23;20417;-82
2022/08/09 20:22:08;;;;;;;3.00;1.90;;;26.90;37.10;;;;;;6168067;23;20383;-81
2022/08/09 20:25:12;;;;;;;2.27;2.07;;;26.90;37.10;;;;;;6149657;23;20380;-82
2022/08/09 20:31:34;;;;;;;2.53;2.30;;;26.90;37.10;;;;;;6175433;23;20352;-82
2022/08/09 20:34:01;;;;;;;2.57;2.10;;;26.90;37.10;;;;;;6169760;23;20411;-81
2022/08/09 20:36:30;;;;;;;2.03;1.73;;;26.90;37.10;;;;;;6169861;23;20667;-82
2022/08/09 20:42:38;;;;;;;2.50;2.20;;;26.90;37.10;;;;;;6170968;23;20364;-83
2022/08/09 20:46:00;;;;;;;2.83;2.30;;;26.90;37.10;;;;;;6169321;23;20439;-82
2022/08/09 20:49:07;;;;;;;2.33;1.80;;;26.90;37.10;;;;;;6168135;23;20411;-83
2022/08/09 20:57:56;;;;;;;1.90;1.80;;;26.80;37.10;;;;;;6174615;23;20372;-83
2022/08/09 21:00:26;;;;;;;2.87;2.37;;;26.80;37.10;;;;;;6171000;23;20372;-83
2022/08/09 21:03:34;;;;;;;2.17;1.97;;;26.80;37.00;;;;;;6171537;23;20364;-83
2022/08/09 21:06:04;;;;;;;1.70;1.60;;;26.80;37.00;;;;;;6169990;23;20410;-83
2022/08/09 21:08:48;;;;;;;;;;;;;;;;;;;;;
2022/08/09 21:11:15;;;;;;;4.60;2.40;;;26.80;37.10;;;;;;6167815;23;20400;-83
2022/08/09 21:17:07;;;;;;;;;;;;;;;;;;;;;
2022/08/09 21:19:35;;;;;;;2.33;2.13;;;26.80;37.00;;;;;;6173981;23;20361;-84
2022/08/09 21:22:19;;;;;;;2.63;1.80;;;26.80;37.00;;;;;;6171476;23;20392;-83
2022/08/09 21:27:36;;;;;;;2.77;2.03;;;26.80;37.00;;;;;;6171940;23;20356;-82
2022/08/09 21:30:14;;;;;;;2.10;1.90;;;26.80;37.10;;;;;;6169899;23;20380;-82
2022/08/09 21:32:46;;;;;;;3.30;2.20;;;26.70;37.00;;;;;;6170010;23;20376;-82
2022/08/09 21:35:12;;;;;;;3.40;2.30;;;26.80;37.20;;;;;;6171401;23;20411;-83
2022/08/09 21:37:41;;;;;;;2.30;2.10;;;26.80;37.20;;;;;;6170284;23;20372;-82
2022/08/09 21:40:23;;;;;;;;;;;;;;;;;;;;;
2022/08/09 21:42:50;;;;;;;2.30;1.90;;;26.80;37.20;;;;;;6171867;23;20367;-83
2022/08/09 21:45:17;;;;;;;2.30;2.10;;;26.80;37.20;;;;;;6170644;23;20391;-82
2022/08/09 21:47:50;;;;;;;2.23;2.03;;;26.80;37.30;;;;;;6171074;23;20450;-83
2022/08/09 21:50:23;;;;;;;2.23;2.03;;;26.80;37.30;;;;;;6170790;23;20467;-83
2022/08/09 21:52:57;;;;;;;2.27;2.07;;;26.80;37.30;;;;;;6169986;23;20412;-83
2022/08/09 21:55:28;;;;;;;2.37;2.17;;;26.80;37.20;;;;;;6170693;23;20415;-83
2022/08/09 21:57:55;;;;;;;3.47;1.70;;;26.80;37.30;;;;;;6169379;23;20376;-83
2022/08/09 22:00:46;;;;;;;2.20;2.00;;;26.80;37.30;;;;;;6170462;23;20383;-83
2022/08/09 22:06:45;;;;;;;2.27;2.07;;;26.80;37.30;;;;;;6110441;23;20382;-82
2022/08/09 22:09:15;;;;;;;1.73;1.63;;;26.80;37.40;;;;;;6086111;23;20370;-82
2022/08/09 22:11:53;;;;;;;2.93;2.67;;;26.80;37.40;;;;;;6110332;23;20382;-83
2022/08/09 22:14:20;;;;;;;2.20;1.87;;;26.80;37.40;;;;;;6086491;23;20385;-83
2022/08/09 22:17:06;;;;;;;2.93;2.00;;;26.80;37.40;;;;;;6088069;23;20421;-82
2022/08/09 22:19:32;;;;;;;3.43;2.27;;;26.80;37.30;;;;;;6088074;23;20389;-81
2022/08/09 22:21:58;;;;;;;3.13;2.10;;;26.80;37.30;;;;;;6087383;23;20394;-82
2022/08/09 22:24:24;;;;;;;2.63;2.37;;;26.80;37.40;;;;;;6087623;23;20382;-81
2022/08/09 22:26:51;;;;;;;2.63;2.43;;;26.80;37.30;;;;;;6111656;23;20406;-81
2022/08/09 22:29:20;;;;;;;3.60;2.60;;;26.80;37.40;;;;;;6087895;23;20586;-81
2022/08/09 22:31:56;;;;;;;2.50;2.13;;;26.80;37.40;;;;;;6087569;23;20392;-81
2022/08/09 22:34:40;;;;;;;2.57;2.33;;;26.80;37.20;;;;;;6111948;23;20537;-82
2022/08/09 22:37:28;;;;;;;2.50;2.30;;;26.80;37.30;;;;;;6087521;23;20681;-82
2022/08/09 22:39:59;;;;;;;2.57;2.37;;;26.80;37.20;;;;;;6114857;23;20467;-82
2022/08/09 22:42:33;;;;;;;2.77;2.00;;;26.80;37.30;;;;;;6172079;23;20368;-82
2022/08/09 22:45:03;;;;;;;2.50;2.30;;;26.80;37.30;;;;;;6172499;23;20384;-82
2022/08/09 22:47:39;;;;;;;2.07;1.83;;;26.70;37.30;;;;;;6170648;23;20372;-82
2022/08/09 22:50:13;;;;;;;2.50;2.10;;;26.70;37.20;;;;;;6172895;23;20371;-82
2022/08/09 22:53:01;;;;;;;;;;;;;;;;;;;;;
2022/08/09 22:55:37;;;;;;;2.30;2.10;;;26.70;37.30;;;;;;6173435;23;20479;-82
2022/08/09 22:58:06;;;;;;;2.47;1.87;;;26.70;37.30;;;;;;6170884;23;20458;-82
2022/08/09 23:00:43;;;;;;;2.40;2.00;;;26.70;37.10;;;;;;6172040;23;20404;-82
2022/08/09 23:03:19;;;;;;;2.50;2.30;;;26.70;37.20;;;;;;6172715;23;20407;-82
2022/08/09 23:05:48;;;;;;;3.10;2.33;;;26.70;37.10;;;;;;6171904;23;20383;-82
2022/08/09 23:11:10;;;;;;;2.43;2.13;;;26.70;37.10;;;;;;6173381;23;20360;-80
2022/08/09 23:13:57;;;;;;;2.30;2.10;;;26.70;37.30;;;;;;6169994;23;20388;-80
2022/08/09 23:16:23;;;;;;;2.43;2.17;;;26.70;37.30;;;;;;6169901;23;20423;-81
2022/08/09 23:18:55;;;;;;;2.23;2.03;;;26.70;37.20;;;;;;6171058;23;20468;-81
2022/08/09 23:21:21;;;;;;;2.33;1.80;;;26.70;37.30;;;;;;6170349;23;20372;-81
2022/08/09 23:24:00;;;;;;;2.00;1.77;;;26.70;37.30;;;;;;6171011;23;20380;-81
2022/08/09 23:26:26;;;;;;;2.80;2.03;;;26.70;37.40;;;;;;6169834;23;20463;-81
2022/08/09 23:28:52;;;;;;;2.33;2.13;;;26.70;37.40;;;;;;6171468;23;20376;-81
2022/08/09 23:31:18;;;;;;;3.00;2.20;;;26.70;37.40;;;;;;6169884;23;20376;-82
2022/08/09 23:33:45;;;;;;;2.03;1.87;;;26.70;37.40;;;;;;6169512;23;20519;-81
2022/08/09 23:36:16;;;;;;;3.33;2.33;;;26.70;37.40;;;;;;6169554;23;20443;-81
2022/08/09 23:38:46;;;;;;;3.30;2.60;;;26.70;37.30;;;;;;6171239;23;20407;-81
2022/08/09 23:41:17;;;;;;;2.20;2.00;;;26.70;37.30;;;;;;6175867;23;20368;-81
2022/08/09 23:43:53;;;;;;;2.47;2.27;;;26.70;37.40;;;;;;6173368;23;20380;-82
2022/08/09 23:46:23;;;;;;;2.30;2.10;;;26.70;37.40;;;;;;6172869;23;20833;-82
2022/08/09 23:49:08;;;;;;;;;;;;;;;;;;;;;
2022/08/09 23:51:52;;;;;;;2.03;1.83;;;26.70;37.40;;;;;;6174326;23;20400;-82
2022/08/09 23:54:26;;;;;;;3.07;2.67;;;26.70;37.50;;;;;;6174800;23;20384;-85
2022/08/09 23:56:59;;;;;;;2.57;2.37;;;26.70;37.50;;;;;;6169892;23;20470;-85
